HC

Hoosier Classic - Training 28 - 75 Miles

Station: 75 Miles - T Race

Distance: 75 Miles

Release: 15-Sep-2020 07:00

Weather Release:    Arrival:

Wind at Release:     Wind at Arrival:

Temp at Release: °    Temp at Arrival: °

Lofts: 770

Birds: 3018

Clocked: 2937

Good Luck to Everyone!
Drops Pos Breeder Pigeon Name Color Sex Ent Arrival Speed To Win Elg PdKOLCGoldPlatinum
1 Kristen Solache - TX 0707-AU20-VK Elias’ Pistol BCH H 1 07:59:05.05 2234.101 00:00:00 Yes
2 Southern Belle - GA 0234-AU20-SBEL Joe dirt BB C 1 08:32:23.10 1428.803 00:33:18 Yes
3 A & H Loft - TN 0002-AU20-ADIL Money in The Bank BB C 1 08:32:23.94 1428.587 00:33:19 Lost
4 Magikk - IL 0082-AU20-NOME Bucephalus BCH H 1 08:32:24.80 1428.365 00:33:20 Yes
5 Holts Loft - NC 0442-AU20-MAC Picture Perfect BCWF H 1 08:32:27.67 1427.626 00:33:23 Yes
6 Zapopan- Palomar- Ayon Loft - TX 0717-AU20-PALO Cantayon BCH C 1 08:32:27.93 1427.559 00:33:23 Yes
7 Arandas Loft - TX 7792-AU20-JEDD gunter prage xmaltita BCH H 1 08:32:28.86 1427.320 00:33:24 Yes
8 Da Dong & Andy Skwiat - WI 2875-AU20-RAC 80-364 BBWF C 1 08:32:29.75 1427.091 00:33:25 Yes
9 Triple L Loft - NY 1111-IF20-EMC Hoosier Daddy BB C 1 08:32:29.88 1427.058 00:33:25 Yes
10 Cicio's Loft - IL 0006-AU20-CICI Larry BCH C 1 08:32:30.82 1426.816 00:33:26 Yes
11 All Stars - IL 0825-AU20-CHAM Juliet BB H 1 08:32:30.96 1426.780 00:33:26 Missing
12 Gayle & Ron Ganus - IN 0744-AU20-GFL Love yourself BWF C 1 08:32:31.99 1426.516 00:33:27 Yes
13 Type R - WI 0815-AU20-MCLO Hoosier R CHOC H 1 08:32:33.02 1426.251 00:33:28 Yes
14 Wonder Loft - M.J. - MN 0670-AU20-WOND "HIGH PRESSURE" BCH H 1 08:32:33.97 1426.007 00:33:29 Yes
15 Liyan - CA 5219-AU20-BON one man band BBWF H 1 08:32:34.22 1425.943 00:33:29 Yes
16 Amer Loft - GA 0074-IF20-AFL 101 AFL X 38 AFL BB C 1 08:32:35.16 1425.702 00:33:30 Yes
17 Arandas Loft - TX 7784-AU20-JEDD suncity x maltita BCH C 2 08:32:35.30 1425.666 00:33:30 Yes
18 Furlano & Rotiroti - ON 20353-CU20-LAKE Falcon BB C 1 08:32:36.25 1425.422 00:33:31 Yes
19 Bryan Maier - PA 0437-IF20-MAIE Precious GRIZ H 1 08:32:37.42 1425.122 00:33:32 Yes
20 Guanatos - ID 0906-AU20-IDA Young Love BB H 1 08:32:38.27 1424.904 00:33:33 Yes
21 H-Y Loft - NV 63178-AU20-ARPU All Over Again BWFS C 1 08:32:38.54 1424.835 00:33:33 Missing
21 🇺🇸 Q-Ba Family Loft 🇺🇸 - TX 20114-AU20-SAIN “Dóberman” BB C 1 08:32:38.54 1424.835 00:33:33 Yes
23 Huttelmayer Racing Strains - CA 3606-CU20-OL Emerald Rose BCH C 1 08:32:39.37 1424.622 00:33:34 Yes
24 Dan-Pete-Stan Syndicate - IL 0010-AU20-BFS Honey BB 0 1 08:32:39.72 1424.532 00:33:35 Missing
25 Yannetti/Surowiec - NJ 0105-IF20-NHF Zorro 105 BLWF H 1 08:32:39.73 1424.530 00:33:35 Missing
26 Yendez Loft - TX 0555-AU20-YEND YENDEZ 555 BCH C 1 08:32:40.66 1424.291 00:33:36 Yes
27 Schillings - IN 0043-AU20-SCHI LITTLE MISS SUN CITY BB H 1 08:32:40.81 1424.253 00:33:36 Lost
28 Holts Loft - NC 0475-AU20-MAC Shake Me Down BSP H 2 08:32:41.74 1424.015 00:33:37 Yes
29 Dream Team Loft - TX 0516-AU20-PB Darby BCH H 1 08:32:41.75 1424.012 00:33:37 Yes
30 Liu's Loft - MO 0208-AU20-BAIZ 魔女 BSP H 1 08:32:41.77 1424.007 00:33:37 Yes
31 Los Banditos - CA 2416-AU20-LOSB Beat of my heart BCH C 1 08:32:41.96 1423.958 00:33:37 Yes
32 Titans Four - IN 0151-IF20-AFL 33 GFL X 113 AFL BSP C 1 08:32:41.97 1423.956 00:33:37 Lost
33 Artur Kozusko Loft - IL 6502-AU20-CHIC Kitty GRIZ H 1 08:32:41.98 1423.953 00:33:37 Yes
34 Lionel's Landing - CT 0260-AU20-LION Hustler BB H 1 08:32:42.87 1423.726 00:33:38 Yes
35 Double T Loft - OK 20066-AU20-DTL Chelsea BB H 1 08:32:43.09 1423.669 00:33:38 Yes
36 Gandara Loft - FL 1191-AU20-VK Limosnera BSP C 1 08:32:43.25 1423.628 00:33:38 Yes
37 Tony Loft - VA 14034-AU20-TONY Blank space BB C 1 08:32:43.42 1423.585 00:33:38 Yes
38 Ken Easley & Son Racing - NM 0011-AU20-EASL Greef - 515 x 799 BSP C 1 08:32:44.36 1423.344 00:33:39 Yes
39 Yandry El Tiburón - FL 0610-AU20-SCHE Yoda BB H 1 08:32:44.37 1423.342 00:33:39 Yes
40 Ganus Family Loft - IN 0470-AU20-GFL DEBBIES PICK TO WIN BCH H 1 08:32:44.54 1423.298 00:33:39 Yes
41 Friends With Benefits - IL 0022-AU20-BEKO ALI BB 1 1 08:32:44.55 1423.296 00:33:39 Yes
42 Do Drop In Loft - NC 0053-IF20-TRC Hannah BB H 1 08:32:45.73 1422.994 00:33:41 Yes
43 Flaca Loft - WI 0023-AU20-LAFL Xray DCH C 1 08:32:45.74 1422.991 00:33:41 Yes
44 Kolvenbag & Son - PA 1420-IF20-KOLV Crazy Little Thing BCH H 1 08:32:45.90 1422.950 00:33:41 Yes
45 Irishsyndicatelofts - AZ 0950-AU20-IRIS Hurricane Fly BCH C 1 08:32:46.71 1422.743 00:33:42 Missing
46 Wartick Family Loft - KS 4002-AU20-FOYS Dozer BB C 1 08:32:46.87 1422.703 00:33:42 Yes
47 C & K Loft - FL 0041-AU20-CK Hammer BB C 1 08:32:47.03 1422.662 00:33:42 Yes
48 Gonzalez Loft Of Ca - CA 1799-AU20-JEDD Closing Time BCH H 1 08:32:47.04 1422.659 00:33:42 Yes
49 Sierra Ranch - CA 0281-AU20-SIER Hoosier Daddy BBWF C 1 08:32:47.80 1422.465 00:33:43 Yes
50 High Point Loft - NJ 0023-IF20-HPL Violeta BB C 1 08:32:47.81 1422.462 00:33:43 Yes
51 Tranjanoski/Vinnie - NJ 1545-IF20-PAT Tweety Bird BB H 1 08:32:48.03 1422.406 00:33:43 Yes
52 Columba Loft & J. R. Helms Loft - GA 1026-AU20-HELM Hermes BCH C 1 08:32:48.18 1422.368 00:33:43 Yes
53 B D S Loft - ON 8113-CU20-CRPU Tyson SILV H 1 08:32:49.17 1422.115 00:33:44 Yes
54 Flying D #2 - TX 0915-AU20-FOYS Fly 915 Flyd1045/Peg 523 BCH C 1 08:32:49.32 1422.077 00:33:44 Yes
55 #1 The Sweet (16) Syndicate - TX 0623-AU20-AONE Greg C. BCH H 1 08:32:49.47 1422.038 00:33:44 Yes
56 Super Mario Loft - IL 0511-AU20-BFS Luigi BB H 1 08:32:49.48 1422.036 00:33:44 Yes
57 Dan Of Joe's Loft - IL 0023-AU20-CICI Speedo BCH C 2 08:32:49.65 1421.992 00:33:45 Yes
58 Crooked River Challenge - OR 4254-AU20-CORP 2247 x 1536 BB H 1 08:32:49.66 1421.990 00:33:45 Yes
59 Jsrl - CA 15202-AU20-JEDD Back and Fourth BB C 1 08:32:50.42 1421.796 00:33:45 Missing
60 All Stars - IL 0805-AU20-MCLO Thelwell BCH H 2 08:32:50.70 1421.724 00:33:46 Yes
61 Flying D #3 - TX 0923-AU20-FOYS Fly 923 Peg 890-Flyd 533 BCH C 1 08:32:50.71 1421.722 00:33:46 Yes
62 Minnesota Boys - MN 0103-AU20-BOUR 373x 69 LudoStollKlaas GRIZ H 1 08:32:50.91 1421.671 00:33:46 Yes
63 Coletta & Leone - CA 1101-IF20-EMC Alana BB C 1 08:32:50.92 1421.668 00:33:46 Yes
64 Ed Minvielle - LA 20073-AU20-A Flint RCH C 1 08:32:50.94 1421.663 00:33:46 Yes
65 Furlano & Rotiroti - ON 20326-CU20-LAKE Cobra BBWF H 2 08:32:51.93 1421.411 00:33:47 Yes
66 Syndicate Lofts - UK 56109-GB20-V Pony Boy BCH C 1 08:32:51.94 1421.408 00:33:47 Missing
67 Furlano & Rotiroti - ON 20393-CU20-LAKE Lady Di BBWF H 3 08:32:52.28 1421.321 00:33:47 Missing
68 3 Marie 1 Thomas - IL 0883-AU20-CHAM Jasper BB C 1 08:32:52.45 1421.278 00:33:47 Yes
69 Genesis Syndicate Loft - AZ 0546-AU20-GENE Sweet Caroline BCH H 1 08:32:52.46 1421.275 00:33:47 Yes
70 Michael Groe - CA 2050-AU20-GROE 137X12777 BCH C 1 08:32:53.26 1421.071 00:33:48 Lost
71 Westfall Loft - MO 0714-AU20-IMOI 165 X 377 BSP C 1 08:32:53.53 1421.002 00:33:48 Yes
72 Coletta & Sorrentino - CA 0162-AU20-COLE About Time BB H 1 08:32:53.54 1421.000 00:33:48 Yes
73 A. Gallo-B. Gonzalez Connection - ON 0004-AU20-MAGI Opie BB H 1 08:32:53.73 1420.951 00:33:49 Yes
74 B F L 3 - MI 1004-AU20-GRM Ranger BB C 1 08:32:54.93 1420.646 00:33:50 Yes
75 Muhammeds Loft - MN 0030-AU20-LUCK cry me a river BSP C 1 08:32:54.94 1420.643 00:33:50 Yes
76 Chu Pigeon - CA 56076-AU20-ARPU peppermint BB C 1 08:32:54.97 1420.635 00:33:50 Yes
77 Frank H Cac - CO 0009-AU20-FRAN Dusty MEAL H 1 08:32:55.12 1420.597 00:33:50 Yes
78 Pekala Loft - IL 5614-AU20-CHIC Vito BB C 1 08:32:55.89 1420.401 00:33:51 Yes
79 Ganus Family Loft - IN 0758-AU20-GFL YELLOW JACKET BB C 2 08:32:55.90 1420.399 00:33:51 Yes
80 Denali Loft - MT 7692-AU20-AA Boy PENC H 1 08:32:56.07 1420.355 00:33:51 Yes
81 Mesopotamia Loft - MN 1740-AU20-VK Capeesh Legend BCH H 1 08:32:56.23 1420.314 00:33:51 Yes
82 Mesopotamia Loft - MN 4828-AU20-JEDD Supreme Rocky DCH C 2 08:32:56.25 1420.309 00:33:51 Yes
83 Yandry El Tiburón - FL 0602-AU20-SCHE Tiburón 1 🦈 BCH C 2 08:32:56.44 1420.261 00:33:51 Yes
84 Skypirate Loft - OK 43065-AU20-ARPU Mooney BB H 1 08:32:56.45 1420.258 00:33:51 Yes
85 Fly Girls Syndicate - CA 15211-AU20-JEDD Pickles BB H 1 08:32:56.47 1420.253 00:33:51 Yes
86 Z & R Mandigma Loft - MI 0018-AU20-ZRMA "Android 18" DCH H 1 08:32:57.25 1420.055 00:33:52 Yes
87 Skypirate Loft - OK 43100-AU20-ARPU Baldeagle BB H 2 08:32:57.26 1420.052 00:33:52 Yes
88 Dean Jamieson - FL 9745-AU20-GHC Grit BB H 1 08:32:57.45 1420.004 00:33:52 Yes
89 S & S - CA 0069-AU20-SS Mona BB H 1 08:32:57.81 1419.912 00:33:53 Yes
90 Espo Loft - SC 1210-AU20-ESPO Fearless Fighter BB H 1 08:32:57.82 1419.910 00:33:53 Yes
91 Pekala Loft - IL 5615-AU20-CHIC Kane BBWF C 2 08:32:57.85 1419.902 00:33:53 Yes
92 All Stars - IL 0804-AU20-CHAM Kokomo BCH H 3 08:32:58.02 1419.859 00:33:53 Missing
93 Ron Talbot /Jimmy Fernandez - LA 3401-AU20-BAYO Poison ivy BB C 1 08:32:59.10 1419.584 00:33:54 Yes
94 Schnell Family Loft - IL 1034-AU20-KIC Bailey's Spike BB H 1 08:32:59.11 1419.581 00:33:54 Yes
95 Ed Skwiat - IN 0938-AU20-VK Grover BCH C 1 08:32:59.12 1419.579 00:33:54 Missing
96 Paul Yahiku - OR 19111-AU20-YAHI 19059 X 370 BLK C 1 08:32:59.13 1419.576 00:33:54 Yes
97 Flying D #3 - TX 0913-AU20-FOYS Fly 931 A120-FlyD 618 BB H 2 08:32:59.29 1419.535 00:33:54 Yes
98 Aztec Loft - DE 0020-AU20-AZTE GOL P X GFL PENC H 1 08:33:00.33 1419.271 00:33:55 Yes
99 Aztec Loft - DE 0072-AU20-AZTE RING/LA56 BSP H 2 08:33:00.57 1419.210 00:33:56 Yes
100 Tim Macken - MN 0147-AU20-MACK "What Dreams Are Made Of" BB C 1 08:33:00.58 1419.207 00:33:56 Yes

There are 2360 bird records

Note: These Race Results are unofficial and subject to change until verified by the Race Committee and declared final.